createdAt,value
2022-12-15T00:01:30.688Z,19.40
2022-12-15T00:04:16.110Z,18.10
2022-12-15T00:06:58.685Z,19.60
2022-12-15T00:09:41.294Z,20.10
2022-12-15T00:12:23.811Z,19.00
2022-12-15T00:15:06.395Z,18.67
2022-12-15T00:17:48.922Z,19.27
2022-12-15T00:20:34.187Z,18.20
2022-12-15T00:23:23.996Z,19.00
2022-12-15T00:26:06.554Z,19.00
2022-12-15T00:28:49.054Z,19.83
2022-12-15T00:31:31.895Z,18.77
2022-12-15T00:34:14.413Z,18.87
2022-12-15T00:36:59.571Z,18.70
2022-12-15T00:39:29.640Z,18.00
2022-12-15T00:41:59.754Z,18.03
2022-12-15T00:44:29.815Z,17.43
2022-12-15T00:46:57.372Z,18.57
2022-12-15T00:49:42.208Z,18.40
2022-12-15T00:52:29.628Z,18.67
2022-12-15T00:55:12.457Z,17.17
2022-12-15T00:57:56.368Z,17.83
2022-12-15T01:00:39.725Z,18.70
2022-12-15T01:03:28.536Z,18.43
2022-12-15T01:06:11.458Z,18.03
2022-12-15T01:09:00.148Z,17.70
2022-12-15T01:11:43.344Z,17.60
2022-12-15T01:14:26.031Z,18.27
2022-12-15T01:17:08.631Z,16.70
2022-12-15T01:19:51.364Z,17.83
2022-12-15T01:22:21.462Z,18.00
2022-12-15T01:24:56.744Z,18.23
2022-12-15T01:27:26.947Z,18.03
2022-12-15T01:29:57.016Z,17.93
2022-12-15T01:32:27.713Z,17.70
2022-12-15T01:34:58.019Z,16.70
2022-12-15T01:37:31.254Z,17.77
2022-12-15T01:40:17.280Z,17.77
2022-12-15T01:42:47.433Z,17.97
2022-12-15T01:45:58.155Z,17.33
2022-12-15T01:48:49.743Z,17.20
2022-12-15T01:51:28.525Z,18.13
2022-12-15T01:54:05.840Z,17.27
2022-12-15T01:56:44.696Z,16.67
2022-12-15T01:59:20.991Z,16.43
2022-12-15T02:01:51.336Z,17.53
2022-12-15T02:04:25.544Z,16.53
2022-12-15T02:06:56.071Z,17.63
2022-12-15T02:09:29.986Z,18.27
2022-12-15T02:12:18.381Z,17.23
2022-12-15T02:15:14.545Z,17.37
2022-12-15T02:17:59.134Z,17.23
2022-12-15T02:20:55.713Z,17.40
2022-12-15T02:24:31.020Z,17.33
2022-12-15T02:27:53.135Z,16.50
2022-12-15T02:30:43.966Z,17.50
2022-12-15T02:33:23.565Z,17.07
2022-12-15T02:36:02.873Z,17.83
2022-12-15T02:38:37.303Z,16.57
2022-12-15T02:41:29.520Z,16.53
2022-12-15T02:44:03.723Z,16.80
2022-12-15T02:46:51.157Z,16.30
2022-12-15T02:49:40.284Z,16.73
2022-12-15T02:52:51.355Z,17.03
2022-12-15T02:55:32.378Z,15.83
2022-12-15T02:58:16.294Z,16.40
2022-12-15T03:00:55.906Z,16.30
2022-12-15T03:03:30.202Z,16.77
2022-12-15T03:06:02.351Z,16.13
2022-12-15T03:08:32.478Z,16.87
2022-12-15T03:11:05.593Z,16.87
2022-12-15T03:13:35.919Z,16.50
2022-12-15T03:16:11.832Z,16.37
2022-12-15T03:18:41.983Z,16.83
2022-12-15T03:21:12.123Z,16.90
2022-12-15T03:23:42.291Z,16.33
2022-12-15T03:26:12.525Z,16.77
2022-12-15T03:28:42.688Z,16.67
2022-12-15T03:31:15.501Z,17.47
2022-12-15T03:33:45.621Z,16.03
2022-12-15T03:36:15.749Z,16.33
2022-12-15T03:38:45.816Z,16.70
2022-12-15T03:41:17.974Z,16.60
2022-12-15T03:43:49.757Z,16.83
2022-12-15T03:46:23.041Z,16.37
2022-12-15T03:48:54.836Z,16.60
2022-12-15T03:51:25.008Z,16.67
2022-12-15T03:53:55.474Z,16.43
2022-12-15T03:56:25.560Z,15.60
2022-12-15T03:58:55.693Z,15.70
2022-12-15T04:01:33.377Z,15.67
2022-12-15T04:04:05.045Z,16.30
2022-12-15T04:06:38.038Z,16.43
2022-12-15T04:09:08.132Z,15.73
2022-12-15T04:11:39.766Z,16.30
2022-12-15T04:14:09.883Z,16.37
2022-12-15T04:16:42.723Z,16.20
2022-12-15T04:19:27.210Z,15.67
2022-12-15T04:21:58.653Z,16.70
2022-12-15T04:24:42.253Z,16.07
2022-12-15T04:27:24.815Z,16.10
2022-12-15T04:30:07.363Z,15.70
2022-12-15T04:32:52.550Z,24.60
2022-12-15T04:35:35.276Z,17.80
2022-12-15T04:38:17.981Z,17.37
2022-12-15T04:41:00.578Z,17.53
2022-12-15T04:43:43.259Z,27.37
2022-12-15T04:46:26.004Z,28.73
2022-12-15T04:49:11.223Z,21.63
2022-12-15T04:51:53.840Z,20.27
2022-12-15T04:54:36.555Z,23.27
2022-12-15T04:57:19.263Z,20.10
2022-12-15T05:00:01.763Z,17.50
2022-12-15T05:02:44.420Z,22.77
2022-12-15T05:05:29.720Z,21.43
2022-12-15T05:08:13.700Z,18.47
2022-12-15T05:10:58.946Z,19.50
2022-12-15T05:13:41.561Z,19.20
2022-12-15T05:16:24.205Z,20.73
2022-12-15T05:19:06.805Z,18.97
2022-12-15T05:21:51.889Z,27.63
2022-12-15T05:24:34.483Z,27.57
2022-12-15T05:27:16.998Z,19.30
2022-12-15T05:29:59.544Z,19.40
2022-12-15T05:32:29.629Z,21.83
2022-12-15T05:34:59.805Z,33.73
2022-12-15T05:37:33.753Z,28.73
2022-12-15T05:40:03.909Z,19.33
2022-12-15T05:42:33.956Z,18.43
2022-12-15T05:45:05.531Z,23.03
2022-12-15T05:47:35.926Z,22.83
2022-12-15T05:50:06.402Z,25.17
2022-12-15T05:52:39.051Z,25.67
2022-12-15T05:55:10.489Z,26.97
2022-12-15T05:57:40.526Z,26.47
2022-12-15T06:00:12.953Z,23.00
2022-12-15T06:02:43.113Z,22.17
2022-12-15T06:05:13.295Z,26.97
2022-12-15T06:07:45.961Z,23.50
2022-12-15T06:10:16.184Z,20.63
2022-12-15T06:12:46.344Z,16.60
2022-12-15T06:15:19.147Z,15.60
2022-12-15T06:17:49.530Z,17.70
2022-12-15T06:20:20.119Z,23.17
2022-12-15T06:22:52.934Z,41.63
2022-12-15T06:25:23.136Z,22.00
2022-12-15T06:27:56.998Z,24.63
2022-12-15T06:30:30.302Z,21.13
2022-12-15T06:33:00.450Z,23.83
2022-12-15T06:35:31.285Z,19.50
2022-12-15T06:38:05.441Z,18.13
2022-12-15T06:40:38.176Z,15.27
2022-12-15T06:43:09.036Z,17.67
2022-12-15T06:45:41.670Z,16.87
2022-12-15T06:48:11.758Z,16.40
2022-12-15T06:50:41.816Z,15.83
2022-12-15T06:53:15.414Z,16.50
2022-12-15T06:55:46.101Z,15.20
2022-12-15T06:58:18.296Z,16.00
2022-12-15T07:00:49.447Z,15.43
2022-12-15T07:03:33.908Z,18.57
2022-12-15T07:06:07.219Z,18.73
2022-12-15T07:08:41.784Z,19.43
2022-12-15T07:11:15.243Z,18.03
2022-12-15T07:13:45.417Z,19.67
2022-12-15T07:16:18.129Z,17.20
2022-12-15T07:18:48.413Z,16.43
2022-12-15T07:21:18.533Z,15.63
2022-12-15T07:23:56.277Z,16.10
2022-12-15T07:26:27.731Z,16.13
2022-12-15T07:28:58.166Z,16.67
2022-12-15T07:31:28.396Z,14.93
2022-12-15T07:34:00.171Z,16.90
2022-12-15T07:36:30.360Z,18.23
2022-12-15T07:39:09.573Z,17.40
2022-12-15T07:41:41.836Z,17.67
2022-12-15T07:44:14.306Z,16.73
2022-12-15T07:46:46.911Z,16.57
2022-12-15T07:49:19.060Z,15.63
2022-12-15T07:51:49.140Z,16.43
2022-12-15T07:54:22.130Z,15.97
2022-12-15T07:56:52.472Z,16.30
2022-12-15T07:59:23.778Z,16.27
2022-12-15T08:01:54.132Z,16.73
2022-12-15T08:04:24.390Z,16.70
2022-12-15T08:06:56.152Z,15.93
2022-12-15T08:09:29.369Z,16.57
2022-12-15T08:11:59.449Z,16.60
2022-12-15T08:14:30.240Z,17.30
2022-12-15T08:17:00.368Z,16.40
2022-12-15T08:19:30.786Z,17.97
2022-12-15T08:22:00.892Z,17.60
2022-12-15T08:24:33.677Z,16.73
2022-12-15T08:27:03.764Z,17.53
2022-12-15T08:29:51.152Z,18.03
2022-12-15T08:32:23.350Z,18.17
2022-12-15T08:34:53.550Z,20.23
2022-12-15T08:37:23.621Z,20.97
2022-12-15T08:39:56.388Z,18.60
2022-12-15T08:42:26.560Z,20.93
2022-12-15T08:44:56.683Z,17.17
2022-12-15T08:47:26.776Z,19.80
2022-12-15T08:49:57.067Z,18.30
2022-12-15T08:52:29.559Z,22.90
2022-12-15T08:55:02.343Z,18.53
2022-12-15T08:57:34.848Z,18.57
2022-12-15T09:00:07.222Z,19.57
2022-12-15T09:02:39.771Z,17.37
2022-12-15T09:05:13.042Z,17.93
2022-12-15T09:07:43.131Z,21.67
2022-12-15T09:10:16.015Z,18.87
2022-12-15T09:12:48.421Z,18.10
2022-12-15T09:15:18.952Z,12.73
2022-12-15T09:17:49.680Z,13.10
2022-12-15T09:20:20.007Z,13.17
2022-12-15T09:22:50.427Z,14.63
2022-12-15T09:25:24.739Z,14.10
2022-12-15T09:28:01.959Z,14.47
2022-12-15T09:30:32.216Z,14.53
2022-12-15T09:33:02.330Z,14.73
2022-12-15T09:35:32.579Z,14.47
2022-12-15T09:38:02.703Z,15.00
2022-12-15T09:40:36.046Z,15.10
2022-12-15T09:43:33.561Z,16.57
2022-12-15T09:46:07.977Z,18.03
2022-12-15T09:48:47.947Z,18.00
2022-12-15T09:51:28.723Z,17.43
2022-12-15T09:53:59.489Z,18.30
2022-12-15T09:56:49.920Z,18.10
2022-12-15T09:59:34.755Z,20.20
2022-12-15T10:02:37.123Z,22.63
2022-12-15T10:05:20.766Z,17.43
2022-12-15T10:07:53.083Z,18.73
2022-12-15T10:10:35.480Z,20.37
2022-12-15T10:13:17.807Z,18.97
2022-12-15T10:15:55.926Z,18.37
2022-12-15T10:18:31.645Z,19.37
2022-12-15T10:21:04.450Z,18.97
2022-12-15T10:23:40.253Z,18.23
2022-12-15T10:26:23.930Z,18.27
2022-12-15T10:29:27.902Z,17.60
2022-12-15T10:32:05.692Z,18.43
2022-12-15T10:34:39.884Z,17.87
2022-12-15T10:37:17.205Z,18.90
2022-12-15T10:39:52.257Z,19.10
2022-12-15T10:42:25.763Z,18.97
2022-12-15T10:45:01.007Z,18.03
2022-12-15T10:47:34.716Z,18.53
2022-12-15T10:50:25.436Z,17.53
2022-12-15T10:52:56.192Z,19.90
2022-12-15T10:55:40.747Z,18.73
2022-12-15T10:58:22.552Z,17.20
2022-12-15T11:01:10.993Z,20.83
2022-12-15T11:03:42.195Z,21.00
2022-12-15T11:06:22.151Z,18.50
2022-12-15T11:08:59.814Z,19.80
2022-12-15T11:11:47.269Z,20.37
2022-12-15T11:14:24.154Z,20.17
2022-12-15T11:17:00.464Z,19.43
2022-12-15T11:19:41.561Z,20.77
2022-12-15T11:22:23.114Z,20.47
2022-12-15T11:24:59.932Z,20.97
2022-12-15T11:27:36.387Z,19.40
2022-12-15T11:30:16.899Z,19.97
2022-12-15T11:32:56.579Z,20.77
2022-12-15T11:35:36.718Z,20.47
2022-12-15T11:38:22.691Z,20.67
2022-12-15T11:40:55.122Z,19.80
2022-12-15T11:43:56.157Z,20.47
2022-12-15T11:46:37.949Z,19.23
2022-12-15T11:49:49.447Z,19.93
2022-12-15T11:52:51.139Z,18.87
2022-12-15T11:55:39.221Z,22.27
2022-12-15T11:58:50.805Z,20.53
2022-12-15T12:02:00.665Z,23.70
2022-12-15T12:04:52.183Z,21.90
2022-12-15T12:07:41.820Z,22.40
2022-12-15T12:10:34.044Z,20.00
2022-12-15T12:13:19.145Z,20.10
2022-12-15T12:16:01.379Z,18.10
2022-12-15T12:18:38.789Z,18.70
2022-12-15T12:21:17.715Z,19.77
2022-12-15T12:23:58.441Z,19.00
2022-12-15T12:26:37.565Z,18.07
2022-12-15T12:29:19.501Z,18.97
2022-12-15T12:32:05.467Z,19.87
2022-12-15T12:34:55.058Z,19.83
2022-12-15T12:38:01.063Z,20.13
2022-12-15T12:40:51.352Z,20.43
2022-12-15T12:43:37.055Z,20.77
2022-12-15T12:46:16.960Z,20.23
2022-12-15T12:48:56.776Z,21.33
2022-12-15T12:51:32.734Z,21.73
2022-12-15T12:54:13.568Z,22.40
2022-12-15T12:56:48.726Z,21.23
2022-12-15T12:59:41.371Z,22.80
2022-12-15T13:02:59.185Z,21.87
2022-12-15T13:05:34.243Z,24.67
2022-12-15T13:08:28.283Z,20.83
2022-12-15T13:11:58.218Z,21.10
2022-12-15T13:14:51.804Z,20.30
2022-12-15T13:17:33.701Z,19.07
2022-12-15T13:20:28.695Z,21.27
2022-12-15T13:23:36.414Z,20.73
2022-12-15T13:26:22.342Z,19.03
2022-12-15T13:28:55.038Z,20.30
2022-12-15T13:31:42.534Z,18.83
2022-12-15T13:34:21.412Z,20.30
2022-12-15T13:37:04.460Z,20.10
2022-12-15T13:39:58.089Z,19.93
2022-12-15T13:42:53.166Z,21.17
2022-12-15T13:45:51.407Z,19.87
2022-12-15T13:48:32.783Z,19.60
2022-12-15T13:51:22.624Z,20.30
2022-12-15T13:54:01.677Z,19.90
2022-12-15T13:57:04.207Z,19.20
2022-12-15T13:59:54.493Z,18.50
2022-12-15T14:02:30.838Z,18.47
2022-12-15T14:05:21.078Z,19.63
2022-12-15T14:07:58.868Z,18.30
2022-12-15T14:10:41.989Z,18.87
2022-12-15T14:13:19.223Z,19.00
2022-12-15T14:15:58.306Z,21.10
2022-12-15T14:18:33.804Z,19.47
2022-12-15T14:21:09.561Z,20.77
2022-12-15T14:24:11.415Z,18.50
2022-12-15T14:26:36.267Z,17.77
2022-12-15T14:29:08.876Z,19.20
2022-12-15T14:31:43.206Z,30.80
2022-12-15T14:34:21.698Z,27.27
2022-12-15T14:36:53.983Z,22.07
2022-12-15T14:39:30.988Z,20.77
2022-12-15T14:42:03.030Z,21.87
2022-12-15T14:44:39.312Z,19.73
2022-12-15T14:47:26.880Z,22.73
2022-12-15T14:50:01.181Z,31.33
2022-12-15T14:52:38.148Z,22.80
2022-12-15T14:55:34.550Z,20.77
2022-12-15T14:58:08.142Z,18.97
2022-12-15T15:00:56.485Z,18.87
2022-12-15T15:03:39.109Z,19.43
2022-12-15T15:06:21.285Z,19.40
2022-12-15T15:08:54.624Z,19.87
2022-12-15T15:11:34.034Z,21.30
2022-12-15T15:14:14.652Z,19.57
2022-12-15T15:16:46.440Z,20.13
2022-12-15T15:19:25.921Z,20.30
2022-12-15T15:21:58.137Z,19.70
2022-12-15T15:24:35.039Z,20.70
2022-12-15T15:27:37.164Z,19.87
2022-12-15T15:30:21.195Z,24.80
2022-12-15T15:32:58.241Z,24.00
2022-12-15T15:35:36.709Z,25.70
2022-12-15T15:38:17.942Z,23.70
2022-12-15T15:41:19.651Z,26.07
2022-12-15T15:43:51.113Z,25.90
2022-12-15T15:46:25.615Z,26.13
2022-12-15T15:48:58.980Z,29.40
2022-12-15T15:51:37.056Z,23.07
2022-12-15T15:54:13.502Z,25.67
2022-12-15T15:56:44.357Z,20.93
2022-12-15T15:59:17.772Z,26.30
2022-12-15T16:01:50.706Z,24.03
2022-12-15T16:04:20.895Z,21.20
2022-12-15T16:06:55.308Z,20.67
2022-12-15T16:09:28.121Z,22.07
2022-12-15T16:12:00.814Z,21.77
2022-12-15T16:14:31.022Z,24.83
2022-12-15T16:17:01.205Z,24.53
2022-12-15T16:19:36.397Z,23.90
2022-12-15T16:22:16.376Z,21.43
2022-12-15T16:24:46.765Z,22.80
2022-12-15T16:27:18.620Z,21.30
2022-12-15T16:29:48.678Z,21.83
2022-12-15T16:32:18.771Z,22.20
2022-12-15T16:34:49.762Z,26.97
2022-12-15T16:37:28.951Z,26.73
2022-12-15T16:39:59.031Z,26.43
2022-12-15T16:42:29.136Z,27.20
2022-12-15T16:44:59.188Z,34.47
2022-12-15T16:47:30.449Z,28.27
2022-12-15T16:50:00.535Z,34.87
2022-12-15T16:52:33.281Z,32.83
2022-12-15T16:55:03.398Z,35.90
2022-12-15T16:57:33.643Z,37.27
2022-12-15T17:00:13.741Z,36.17
2022-12-15T17:02:44.623Z,33.53
2022-12-15T17:05:17.560Z,41.23
2022-12-15T17:07:56.106Z,77.07
2022-12-15T17:10:29.889Z,60.20
2022-12-15T17:13:10.098Z,39.63
2022-12-15T17:15:40.235Z,32.17
2022-12-15T17:18:15.143Z,31.23
2022-12-15T17:20:46.036Z,31.50
2022-12-15T17:23:25.604Z,35.10
2022-12-15T17:26:22.680Z,35.73
2022-12-15T17:28:48.852Z,43.77
2022-12-15T17:31:22.489Z,40.63
2022-12-15T17:33:53.679Z,37.10
2022-12-15T17:36:29.435Z,35.30
2022-12-15T17:39:04.154Z,38.10
2022-12-15T17:41:58.646Z,33.77
2022-12-15T17:44:38.264Z,34.97
2022-12-15T17:47:11.118Z,32.50
2022-12-15T17:49:41.416Z,33.47
2022-12-15T17:52:29.476Z,33.17
2022-12-15T17:55:03.768Z,38.10
2022-12-15T17:57:36.338Z,40.73
2022-12-15T18:00:34.101Z,39.33
2022-12-15T18:03:04.868Z,38.03
2022-12-15T18:05:35.325Z,63.30
2022-12-15T18:08:17.098Z,54.87
2022-12-15T18:10:54.910Z,40.33
2022-12-15T18:13:30.303Z,37.03
2022-12-15T18:16:04.391Z,44.27
2022-12-15T18:18:35.543Z,44.87
2022-12-15T18:21:16.554Z,39.63
2022-12-15T18:23:47.667Z,38.07
2022-12-15T18:26:21.044Z,37.87
2022-12-15T18:28:52.386Z,33.67
2022-12-15T18:31:27.685Z,34.90
2022-12-15T18:34:04.782Z,43.73
2022-12-15T18:36:35.454Z,48.07
2022-12-15T18:39:20.086Z,42.20
2022-12-15T18:41:54.835Z,43.90
2022-12-15T18:44:29.434Z,50.93
2022-12-15T18:46:59.722Z,36.10
2022-12-15T18:49:29.900Z,37.70
2022-12-15T18:52:00.043Z,38.17
2022-12-15T18:54:30.321Z,38.80
2022-12-15T18:57:12.395Z,35.10
2022-12-15T18:59:42.474Z,40.63
2022-12-15T19:02:12.768Z,41.00
2022-12-15T19:04:43.052Z,40.60
2022-12-15T19:07:14.123Z,34.65
2022-12-15T19:09:44.541Z,34.13
2022-12-15T19:12:22.628Z,33.47
2022-12-15T19:14:55.392Z,34.53
2022-12-15T19:17:39.684Z,33.27
2022-12-15T19:20:32.397Z,29.10
2022-12-15T19:23:02.550Z,34.00
2022-12-15T19:25:33.669Z,33.37
2022-12-15T19:28:06.908Z,34.87
2022-12-15T19:30:42.043Z,34.23
2022-12-15T19:33:12.737Z,38.77
2022-12-15T19:35:46.426Z,53.60
2022-12-15T19:38:30.023Z,38.23
2022-12-15T19:41:02.404Z,35.70
2022-12-15T19:43:35.769Z,39.63
2022-12-15T19:46:06.765Z,42.53
2022-12-15T19:48:37.110Z,39.67
2022-12-15T19:51:07.560Z,32.57
2022-12-15T19:53:37.648Z,33.77
2022-12-15T19:56:08.704Z,31.90
2022-12-15T19:58:41.793Z,31.07
2022-12-15T20:01:17.231Z,33.13
2022-12-15T20:03:53.161Z,33.03
2022-12-15T20:06:27.468Z,32.10
2022-12-15T20:08:59.393Z,32.07
2022-12-15T20:11:33.107Z,32.77
2022-12-15T20:14:14.931Z,78.37
2022-12-15T20:16:45.330Z,51.63
2022-12-15T20:19:15.514Z,47.40
2022-12-15T20:21:46.056Z,44.80
2022-12-15T20:24:21.435Z,51.03
2022-12-15T20:26:51.956Z,83.27
2022-12-15T20:29:31.889Z,82.87
2022-12-15T20:32:02.632Z,51.07
2022-12-15T20:34:32.742Z,42.27
2022-12-15T20:37:02.999Z,40.23
2022-12-15T20:39:35.991Z,37.97
2022-12-15T20:42:06.307Z,44.73
2022-12-15T20:44:38.970Z,44.80
2022-12-15T20:47:09.843Z,35.60
2022-12-15T20:49:39.912Z,37.40
2022-12-15T20:52:12.860Z,45.03
2022-12-15T20:54:43.930Z,41.97
2022-12-15T20:57:14.420Z,34.07
2022-12-15T20:59:47.444Z,32.03
2022-12-15T21:02:21.481Z,29.07
2022-12-15T21:04:52.792Z,30.93
2022-12-15T21:07:22.927Z,28.10
2022-12-15T21:09:53.032Z,29.30
2022-12-15T21:12:30.328Z,32.10
2022-12-15T21:15:02.989Z,36.77
2022-12-15T21:17:36.323Z,37.30
2022-12-15T21:20:14.804Z,35.37
2022-12-15T21:22:45.471Z,34.93
2022-12-15T21:25:27.492Z,36.07
2022-12-15T21:27:59.002Z,35.13
2022-12-15T21:30:31.798Z,36.77
2022-12-15T21:33:01.983Z,41.50
2022-12-15T21:35:32.190Z,40.93
2022-12-15T21:38:02.565Z,42.60
2022-12-15T21:40:33.018Z,37.60
2022-12-15T21:43:07.155Z,38.40
2022-12-15T21:45:40.055Z,36.30
2022-12-15T21:48:24.537Z,38.30
2022-12-15T21:50:54.639Z,41.63
2022-12-15T21:53:25.655Z,42.60
2022-12-15T21:55:57.516Z,45.23
2022-12-15T21:58:28.086Z,43.13
2022-12-15T22:01:02.696Z,41.10
2022-12-15T22:03:34.911Z,39.80
2022-12-15T22:06:05.142Z,40.87
2022-12-15T22:08:36.064Z,40.90
2022-12-15T22:11:22.613Z,41.97
2022-12-15T22:13:55.173Z,34.60
2022-12-15T22:16:28.414Z,37.30
2022-12-15T22:19:01.135Z,34.87
2022-12-15T22:21:31.437Z,39.90
2022-12-15T22:24:01.547Z,38.67
2022-12-15T22:26:36.615Z,37.77
2022-12-15T22:29:16.570Z,40.70
2022-12-15T22:31:49.685Z,46.30
2022-12-15T22:34:24.320Z,44.57
2022-12-15T22:36:55.027Z,37.23
2022-12-15T22:39:25.626Z,42.43
2022-12-15T22:41:58.788Z,40.10
2022-12-15T22:44:34.785Z,39.23
2022-12-15T22:47:09.719Z,35.27
2022-12-15T22:49:42.908Z,34.57
2022-12-15T22:52:21.437Z,36.37
2022-12-15T22:54:54.049Z,32.23
2022-12-15T22:57:29.756Z,38.77
2022-12-15T23:00:07.374Z,33.07
2022-12-15T23:02:44.712Z,30.90
2022-12-15T23:05:18.855Z,29.37
2022-12-15T23:07:49.604Z,34.70
2022-12-15T23:10:34.815Z,35.70
2022-12-15T23:13:05.047Z,33.37
2022-12-15T23:15:48.150Z,33.37
2022-12-15T23:18:20.924Z,29.30
2022-12-15T23:20:51.631Z,28.20
2022-12-15T23:23:22.478Z,28.73
2022-12-15T23:25:52.613Z,27.60
2022-12-15T23:28:23.971Z,27.70
2022-12-15T23:30:55.449Z,26.53
2022-12-15T23:33:31.425Z,27.27
2022-12-15T23:36:06.158Z,26.87
2022-12-15T23:38:36.290Z,31.07
2022-12-15T23:41:09.064Z,31.17
2022-12-15T23:43:39.435Z,33.10
2022-12-15T23:46:10.682Z,28.77
2022-12-15T23:48:47.261Z,31.57
2022-12-15T23:51:20.690Z,27.00
2022-12-15T23:53:51.679Z,25.70
2022-12-15T23:56:25.691Z,24.37
2022-12-15T23:59:00.140Z,23.70
